createdAt,value
2023-03-06T00:01:08.242Z,3.70
2023-03-06T00:03:35.547Z,4.00
2023-03-06T00:06:02.638Z,3.97
2023-03-06T00:08:29.875Z,3.70
2023-03-06T00:10:57.751Z,4.60
2023-03-06T00:13:26.743Z,4.15
2023-03-06T00:15:53.920Z,4.05
2023-03-06T00:18:21.041Z,3.55
2023-03-06T00:20:48.136Z,3.90
2023-03-06T00:23:15.263Z,3.45
2023-03-06T00:25:44.262Z,3.58
2023-03-06T00:28:12.529Z,3.80
2023-03-06T00:30:39.734Z,4.10
2023-03-06T00:33:06.926Z,3.80
2023-03-06T00:35:33.983Z,4.78
2023-03-06T00:38:01.038Z,3.90
2023-03-06T00:40:28.079Z,4.70
2023-03-06T00:42:55.111Z,4.90
2023-03-06T00:45:22.226Z,4.23
2023-03-06T00:47:49.438Z,4.20
2023-03-06T00:50:16.656Z,4.13
2023-03-06T00:52:43.668Z,4.40
2023-03-06T00:55:10.981Z,4.43
2023-03-06T00:57:39.409Z,4.90
2023-03-06T01:00:07.749Z,4.60
2023-03-06T01:02:34.836Z,4.15
2023-03-06T01:05:02.332Z,4.18
2023-03-06T01:07:34.133Z,4.75
2023-03-06T01:10:01.256Z,4.70
2023-03-06T01:12:30.995Z,4.40
2023-03-06T01:14:58.020Z,4.35
2023-03-06T01:17:25.089Z,4.43
2023-03-06T01:19:52.096Z,4.57
2023-03-06T01:22:19.211Z,4.00
2023-03-06T01:24:46.210Z,4.28
2023-03-06T01:27:14.152Z,4.05
2023-03-06T01:29:43.965Z,4.28
2023-03-06T01:32:11.085Z,4.00
2023-03-06T01:34:38.050Z,4.07
2023-03-06T01:37:05.029Z,4.15
2023-03-06T01:39:32.226Z,4.10
2023-03-06T01:41:59.438Z,3.70
2023-03-06T01:44:26.569Z,4.20
2023-03-06T01:46:53.613Z,3.83
2023-03-06T01:49:28.631Z,4.20
2023-03-06T01:52:10.575Z,4.45
2023-03-06T01:55:11.363Z,4.13
2023-03-06T01:57:52.997Z,4.40
2023-03-06T02:00:24.198Z,4.60
2023-03-06T02:02:58.871Z,4.50
2023-03-06T02:05:25.906Z,5.10
2023-03-06T02:07:54.547Z,5.00
2023-03-06T02:10:22.134Z,4.80
2023-03-06T02:12:51.364Z,4.63
2023-03-06T02:15:22.452Z,4.13
2023-03-06T02:17:51.516Z,4.45
2023-03-06T02:20:48.068Z,5.20
2023-03-06T02:23:21.801Z,5.00
2023-03-06T02:25:51.081Z,4.77
2023-03-06T02:28:22.349Z,5.25
2023-03-06T02:30:54.789Z,5.20
2023-03-06T02:33:25.104Z,4.47
2023-03-06T02:36:14.781Z,4.60
2023-03-06T02:38:48.960Z,6.13
2023-03-06T02:41:17.953Z,5.30
2023-03-06T02:43:48.164Z,4.90
2023-03-06T02:46:15.302Z,5.80
2023-03-06T02:48:42.549Z,6.18
2023-03-06T02:51:09.536Z,5.37
2023-03-06T02:53:36.789Z,5.93
2023-03-06T02:56:03.822Z,5.90
2023-03-06T02:58:30.789Z,5.15
2023-03-06T03:00:58.959Z,4.75
2023-03-06T03:03:26.698Z,5.83
2023-03-06T03:05:53.667Z,5.55
2023-03-06T03:08:24.802Z,5.28
2023-03-06T03:10:57.108Z,5.40
2023-03-06T03:13:25.377Z,5.82
2023-03-06T03:16:07.055Z,5.30
2023-03-06T03:18:34.761Z,6.28
2023-03-06T03:21:02.757Z,5.45
2023-03-06T03:23:29.743Z,5.03
2023-03-06T03:26:10.218Z,6.05
2023-03-06T03:28:40.176Z,4.97
2023-03-06T03:31:09.324Z,5.30
2023-03-06T03:33:36.498Z,4.93
2023-03-06T03:36:06.076Z,5.43
2023-03-06T03:38:34.878Z,5.10
2023-03-06T03:41:02.981Z,5.40
2023-03-06T03:43:30.961Z,5.75
2023-03-06T03:45:59.156Z,5.60
2023-03-06T03:48:26.530Z,5.22
2023-03-06T03:50:53.626Z,6.18
2023-03-06T03:53:23.365Z,5.73
2023-03-06T03:55:50.430Z,6.53
2023-03-06T03:58:20.019Z,7.28
2023-03-06T04:00:48.289Z,9.95
2023-03-06T04:03:15.663Z,6.40
2023-03-06T04:05:45.145Z,6.50
2023-03-06T04:08:15.174Z,5.50
2023-03-06T04:10:44.865Z,6.60
2023-03-06T04:13:14.187Z,5.28
2023-03-06T04:15:43.717Z,5.30
2023-03-06T04:18:11.473Z,5.47
2023-03-06T04:20:39.439Z,6.97
2023-03-06T04:23:06.639Z,5.30
2023-03-06T04:25:33.711Z,5.72
2023-03-06T04:28:02.997Z,6.40
2023-03-06T04:30:31.046Z,6.80
2023-03-06T04:32:58.576Z,6.90
2023-03-06T04:35:25.890Z,6.47
2023-03-06T04:37:58.998Z,6.70
2023-03-06T04:40:31.622Z,6.72
2023-03-06T04:43:00.584Z,7.57
2023-03-06T04:45:29.375Z,6.78
2023-03-06T04:47:57.283Z,6.55
2023-03-06T04:50:25.583Z,6.78
2023-03-06T04:52:52.717Z,6.85
2023-03-06T04:55:20.293Z,6.07
2023-03-06T04:57:47.927Z,6.00
2023-03-06T05:00:20.852Z,6.00
2023-03-06T05:02:49.155Z,6.10
2023-03-06T05:05:17.929Z,6.82
2023-03-06T05:07:45.258Z,5.70
2023-03-06T05:10:14.877Z,6.22
2023-03-06T05:12:42.244Z,5.93
2023-03-06T05:15:10.819Z,5.82
2023-03-06T05:17:37.982Z,5.70
2023-03-06T05:20:07.489Z,5.87
2023-03-06T05:22:34.923Z,6.00
2023-03-06T05:25:02.166Z,5.47
2023-03-06T05:27:30.979Z,5.13
2023-03-06T05:29:58.451Z,5.80
2023-03-06T05:32:25.628Z,5.20
2023-03-06T05:34:52.677Z,5.30
2023-03-06T05:37:19.787Z,5.70
2023-03-06T05:39:47.021Z,5.38
2023-03-06T05:42:14.059Z,5.40
2023-03-06T05:44:41.922Z,5.37
2023-03-06T05:47:09.365Z,4.55
2023-03-06T05:49:36.860Z,5.22
2023-03-06T05:52:05.565Z,5.20
2023-03-06T05:54:34.675Z,5.70
2023-03-06T05:57:04.379Z,5.43
2023-03-06T05:59:33.202Z,5.28
2023-03-06T06:02:01.404Z,5.88
2023-03-06T06:04:28.875Z,5.80
2023-03-06T06:06:57.782Z,5.72
2023-03-06T06:09:25.957Z,5.73
2023-03-06T06:11:54.938Z,5.38
2023-03-06T06:14:21.962Z,5.22
2023-03-06T06:16:49.134Z,4.90
2023-03-06T06:19:20.276Z,5.25
2023-03-06T06:21:49.805Z,5.27
2023-03-06T06:24:19.130Z,4.90
2023-03-06T06:26:46.418Z,4.90
2023-03-06T06:29:13.835Z,5.00
2023-03-06T06:31:41.491Z,4.68
2023-03-06T06:34:10.805Z,4.90
2023-03-06T06:36:38.245Z,4.55
2023-03-06T06:39:07.451Z,5.10
2023-03-06T06:41:53.412Z,5.18
2023-03-06T06:44:22.413Z,7.55
2023-03-06T06:47:21.421Z,4.80
2023-03-06T06:49:37.650Z,5.32
2023-03-06T06:52:05.849Z,4.60
2023-03-06T06:54:34.197Z,4.68
2023-03-06T06:57:01.278Z,5.07
2023-03-06T06:59:28.385Z,5.03
2023-03-06T07:01:55.498Z,4.63
2023-03-06T07:04:22.760Z,4.43
2023-03-06T07:06:49.809Z,4.43
2023-03-06T07:09:16.992Z,4.47
2023-03-06T07:11:44.075Z,4.50
2023-03-06T07:14:11.091Z,4.22
2023-03-06T07:16:38.172Z,7.15
2023-03-06T07:19:05.313Z,5.40
2023-03-06T07:21:32.881Z,5.05
2023-03-06T07:24:00.045Z,4.63
2023-03-06T07:26:28.287Z,4.45
2023-03-06T07:28:55.517Z,4.40
2023-03-06T07:31:25.527Z,5.18
2023-03-06T07:33:54.405Z,4.18
2023-03-06T07:36:24.967Z,4.93
2023-03-06T07:38:52.066Z,5.07
2023-03-06T07:41:22.159Z,4.47
2023-03-06T07:43:50.409Z,4.53
2023-03-06T07:46:17.834Z,4.60
2023-03-06T07:48:45.019Z,5.10
2023-03-06T07:51:20.453Z,4.65
2023-03-06T07:53:48.384Z,5.00
2023-03-06T07:56:16.375Z,4.20
2023-03-06T07:58:45.329Z,3.75
2023-03-06T08:01:15.556Z,4.07
2023-03-06T08:03:42.737Z,3.90
2023-03-06T08:06:14.951Z,4.20
2023-03-06T08:08:44.753Z,4.20
2023-03-06T08:11:13.371Z,4.50
2023-03-06T08:13:41.152Z,3.90
2023-03-06T08:16:09.283Z,3.63
2023-03-06T08:18:36.331Z,4.30
2023-03-06T08:21:07.775Z,3.50
2023-03-06T08:23:35.484Z,3.50
2023-03-06T08:26:05.356Z,4.20
2023-03-06T08:28:32.785Z,4.18
2023-03-06T08:31:09.122Z,4.57
2023-03-06T08:33:36.759Z,4.60
2023-03-06T08:36:04.078Z,3.67
2023-03-06T08:38:31.141Z,4.07
2023-03-06T08:40:58.397Z,3.53
2023-03-06T08:43:25.447Z,3.60
2023-03-06T08:45:53.944Z,3.85
2023-03-06T08:48:20.963Z,4.35
2023-03-06T08:50:48.286Z,4.20
2023-03-06T08:53:15.498Z,3.30
2023-03-06T08:55:42.616Z,4.20
2023-03-06T08:58:10.068Z,3.22
2023-03-06T09:00:38.080Z,3.72
2023-03-06T09:03:05.959Z,3.00
2023-03-06T09:05:33.083Z,3.95
2023-03-06T09:08:00.158Z,3.58
2023-03-06T09:10:27.960Z,3.33
2023-03-06T09:12:55.514Z,2.70
2023-03-06T09:15:23.971Z,3.40
2023-03-06T09:17:51.949Z,3.08
2023-03-06T09:20:19.404Z,3.28
2023-03-06T09:22:47.050Z,3.22
2023-03-06T09:25:17.678Z,2.90
2023-03-06T09:27:44.674Z,3.10
2023-03-06T09:30:12.435Z,2.50
2023-03-06T09:32:39.496Z,2.60
2023-03-06T09:35:07.129Z,3.05
2023-03-06T09:37:34.270Z,2.38
2023-03-06T09:40:01.255Z,2.43
2023-03-06T09:42:29.371Z,2.70
2023-03-06T09:45:00.589Z,2.03
2023-03-06T09:47:48.627Z,2.50
2023-03-06T09:50:36.234Z,2.75
2023-03-06T09:53:12.076Z,2.37
2023-03-06T09:55:40.771Z,2.22
2023-03-06T09:58:47.608Z,2.22
2023-03-06T10:01:25.419Z,2.60
2023-03-06T10:04:02.193Z,2.55
2023-03-06T10:06:45.920Z,2.80
2023-03-06T10:09:41.959Z,3.05
2023-03-06T10:12:25.383Z,2.72
2023-03-06T10:15:02.162Z,2.60
2023-03-06T10:17:37.839Z,2.42
2023-03-06T10:20:22.209Z,2.97
2023-03-06T10:23:07.861Z,2.88
2023-03-06T10:25:56.769Z,2.80
2023-03-06T10:28:36.676Z,2.92
2023-03-06T10:31:21.449Z,3.10
2023-03-06T10:33:54.509Z,3.00
2023-03-06T10:36:27.336Z,3.80
2023-03-06T10:38:57.622Z,4.70
2023-03-06T10:41:32.201Z,3.08
2023-03-06T10:44:05.346Z,2.65
2023-03-06T10:46:36.532Z,4.23
2023-03-06T10:49:22.530Z,3.03
2023-03-06T10:52:09.840Z,3.53
2023-03-06T10:54:42.649Z,2.70
2023-03-06T10:57:27.905Z,2.50
2023-03-06T10:59:58.955Z,2.60
2023-03-06T11:02:31.487Z,2.80
2023-03-06T11:05:00.477Z,3.30
2023-03-06T11:07:33.173Z,2.60
2023-03-06T11:10:19.169Z,2.53
2023-03-06T11:13:09.118Z,4.50
2023-03-06T11:15:36.386Z,4.60
2023-03-06T11:18:09.509Z,3.13
2023-03-06T11:20:54.431Z,2.80
2023-03-06T11:23:44.786Z,2.95
2023-03-06T11:26:17.851Z,3.20
2023-03-06T11:29:12.322Z,2.85
2023-03-06T11:31:54.801Z,3.22
2023-03-06T11:35:07.988Z,3.10
2023-03-06T11:37:57.514Z,3.10
2023-03-06T11:40:31.741Z,3.30
2023-03-06T11:42:58.728Z,3.42
2023-03-06T11:45:46.550Z,3.08
2023-03-06T11:48:17.616Z,3.17
2023-03-06T11:50:47.916Z,3.00
2023-03-06T11:53:21.507Z,2.90
2023-03-06T11:55:54.356Z,3.03
2023-03-06T11:58:40.429Z,2.90
2023-03-06T12:01:23.475Z,3.03
2023-03-06T12:04:02.747Z,3.20
2023-03-06T12:06:53.044Z,2.93
2023-03-06T12:09:28.495Z,2.80
2023-03-06T12:12:25.740Z,2.92
2023-03-06T12:14:52.818Z,3.35
2023-03-06T12:17:26.801Z,3.20
2023-03-06T12:20:19.990Z,3.30
2023-03-06T12:22:57.916Z,3.03
2023-03-06T12:25:38.205Z,3.28
2023-03-06T12:28:20.382Z,3.55
2023-03-06T12:30:56.381Z,3.45
2023-03-06T12:33:31.479Z,3.40
2023-03-06T12:36:22.667Z,3.05
2023-03-06T12:39:11.531Z,3.00
2023-03-06T12:42:23.215Z,2.45
2023-03-06T12:45:19.433Z,2.60
2023-03-06T12:47:48.976Z,2.93
2023-03-06T12:50:34.588Z,2.78
2023-03-06T12:53:04.603Z,3.35
2023-03-06T12:55:48.994Z,2.67
2023-03-06T12:58:31.360Z,2.90
2023-03-06T13:01:09.759Z,2.80
2023-03-06T13:04:14.101Z,3.33
2023-03-06T13:07:22.852Z,3.28
2023-03-06T13:10:06.146Z,2.47
2023-03-06T13:12:49.542Z,3.15
2023-03-06T13:15:35.238Z,2.40
2023-03-06T13:18:25.616Z,2.75
2023-03-06T13:20:56.975Z,3.33
2023-03-06T13:23:30.390Z,2.60
2023-03-06T13:25:58.593Z,2.58
2023-03-06T13:28:50.657Z,2.70
2023-03-06T13:31:28.894Z,3.33
2023-03-06T13:34:02.459Z,3.00
2023-03-06T13:36:39.725Z,2.58
2023-03-06T13:39:11.181Z,2.90
2023-03-06T13:41:53.237Z,3.83
2023-03-06T13:44:26.297Z,2.75
2023-03-06T13:47:02.728Z,2.83
2023-03-06T13:49:30.444Z,2.80
2023-03-06T13:52:29.666Z,2.85
2023-03-06T13:55:15.542Z,3.10
2023-03-06T13:57:58.023Z,3.53
2023-03-06T14:00:43.397Z,3.30
2023-03-06T14:03:32.601Z,3.22
2023-03-06T14:05:59.997Z,3.80
2023-03-06T14:08:34.308Z,3.10
2023-03-06T14:11:15.538Z,3.85
2023-03-06T14:13:57.256Z,3.25
2023-03-06T14:16:29.190Z,3.72
2023-03-06T14:19:01.043Z,3.55
2023-03-06T14:21:32.157Z,3.50
2023-03-06T14:24:01.419Z,3.45
2023-03-06T14:26:51.931Z,3.17
2023-03-06T14:29:24.764Z,3.95
2023-03-06T14:31:54.860Z,3.28
2023-03-06T14:34:25.863Z,3.30
2023-03-06T14:36:56.049Z,3.88
2023-03-06T14:39:42.595Z,3.95
2023-03-06T14:42:20.885Z,3.33
2023-03-06T14:44:49.983Z,3.25
2023-03-06T14:47:27.968Z,2.93
2023-03-06T14:50:30.398Z,3.00
2023-03-06T14:53:05.108Z,2.80
2023-03-06T14:55:35.367Z,3.00
2023-03-06T14:58:13.835Z,2.78
2023-03-06T15:00:45.498Z,2.83
2023-03-06T15:03:41.168Z,2.50
2023-03-06T15:06:36.720Z,2.83
2023-03-06T15:09:08.232Z,3.30
2023-03-06T15:11:56.439Z,3.00
2023-03-06T15:14:48.188Z,2.57
2023-03-06T15:17:16.228Z,2.85
2023-03-06T15:19:44.612Z,2.95
2023-03-06T15:22:41.236Z,2.70
2023-03-06T15:25:30.140Z,2.97
2023-03-06T15:28:22.574Z,3.53
2023-03-06T15:31:28.074Z,3.25
2023-03-06T15:34:07.083Z,2.90
2023-03-06T15:36:39.770Z,3.20
2023-03-06T15:39:29.112Z,3.22
2023-03-06T15:42:14.453Z,3.10
2023-03-06T15:44:42.088Z,2.95
2023-03-06T15:47:39.884Z,3.08
2023-03-06T15:50:19.495Z,2.80
2023-03-06T15:52:48.454Z,4.53
2023-03-06T15:55:19.200Z,5.83
2023-03-06T15:58:02.460Z,3.00
2023-03-06T16:00:35.323Z,3.70
2023-03-06T16:03:03.174Z,3.35
2023-03-06T16:05:30.994Z,3.05
2023-03-06T16:07:58.228Z,2.83
2023-03-06T16:10:29.086Z,4.68
2023-03-06T16:13:10.288Z,5.05
2023-03-06T16:15:47.000Z,4.00
2023-03-06T16:18:14.039Z,3.42
2023-03-06T16:20:41.795Z,3.23
2023-03-06T16:23:12.551Z,3.70
2023-03-06T16:25:43.140Z,3.45
2023-03-06T16:28:15.637Z,3.90
2023-03-06T16:30:44.541Z,3.20
2023-03-06T16:33:13.841Z,3.40
2023-03-06T16:35:41.492Z,3.83
2023-03-06T16:38:10.362Z,3.72
2023-03-06T16:40:41.418Z,3.28
2023-03-06T16:43:10.967Z,3.47
2023-03-06T16:45:40.396Z,3.13
2023-03-06T16:48:11.170Z,3.15
2023-03-06T16:50:40.289Z,3.15
2023-03-06T16:53:08.027Z,3.50
2023-03-06T16:55:35.097Z,3.22
2023-03-06T16:58:02.370Z,3.50
2023-03-06T17:00:32.144Z,4.07
2023-03-06T17:03:00.843Z,3.60
2023-03-06T17:05:29.066Z,3.50
2023-03-06T17:07:56.256Z,3.60
2023-03-06T17:10:26.456Z,4.03
2023-03-06T17:12:55.427Z,2.90
2023-03-06T17:15:22.970Z,3.28
2023-03-06T17:17:51.769Z,3.00
2023-03-06T17:20:19.891Z,3.50
2023-03-06T17:22:46.989Z,4.03
2023-03-06T17:25:14.201Z,3.50
2023-03-06T17:27:41.328Z,3.90
2023-03-06T17:30:09.123Z,4.00
2023-03-06T17:32:37.566Z,3.75
2023-03-06T17:35:05.323Z,3.40
2023-03-06T17:37:32.713Z,2.80
2023-03-06T17:39:59.859Z,3.40
2023-03-06T17:42:26.890Z,3.28
2023-03-06T17:44:54.219Z,3.40
2023-03-06T17:47:21.419Z,3.20
2023-03-06T17:49:48.511Z,3.70
2023-03-06T17:52:15.759Z,2.97
2023-03-06T17:54:42.718Z,3.50
2023-03-06T17:57:09.712Z,3.40
2023-03-06T17:59:36.698Z,3.47
2023-03-06T18:02:03.905Z,3.80
2023-03-06T18:04:30.968Z,3.60
2023-03-06T18:06:58.464Z,4.00
2023-03-06T18:09:25.502Z,4.55
2023-03-06T18:11:52.698Z,3.73
2023-03-06T18:14:19.675Z,3.60
2023-03-06T18:16:47.070Z,3.75
2023-03-06T18:19:14.512Z,3.97
2023-03-06T18:21:41.545Z,3.88
2023-03-06T18:24:11.435Z,4.10
2023-03-06T18:26:42.245Z,3.63
2023-03-06T18:29:09.247Z,3.20
2023-03-06T18:31:38.789Z,3.08
2023-03-06T18:34:11.280Z,3.05
2023-03-06T18:36:56.994Z,3.07
2023-03-06T18:39:24.063Z,3.30
2023-03-06T18:41:51.803Z,3.10
2023-03-06T18:44:19.396Z,3.55
2023-03-06T18:46:46.548Z,3.17
2023-03-06T18:49:14.597Z,3.27
2023-03-06T18:51:41.923Z,3.65
2023-03-06T18:54:12.407Z,2.85
2023-03-06T18:56:44.218Z,3.33
2023-03-06T18:59:18.948Z,3.25
2023-03-06T19:01:47.343Z,3.23
2023-03-06T19:04:15.732Z,3.97
2023-03-06T19:06:42.967Z,3.92
2023-03-06T19:09:11.436Z,3.58
2023-03-06T19:11:38.522Z,3.28
2023-03-06T19:14:05.778Z,4.20
2023-03-06T19:16:32.889Z,3.67
2023-03-06T19:18:59.934Z,3.88
2023-03-06T19:21:27.839Z,3.53
2023-03-06T19:23:56.159Z,3.53
2023-03-06T19:26:23.635Z,4.17
2023-03-06T19:28:52.591Z,3.60
2023-03-06T19:31:25.169Z,3.80
2023-03-06T19:33:53.575Z,3.95
2023-03-06T19:36:26.716Z,3.90
2023-03-06T19:38:55.562Z,3.70
2023-03-06T19:41:23.081Z,3.80
2023-03-06T19:43:53.179Z,3.83
2023-03-06T19:46:22.188Z,3.88
2023-03-06T19:48:55.023Z,3.47
2023-03-06T19:51:22.476Z,3.77
2023-03-06T19:53:49.480Z,4.18
2023-03-06T19:56:23.703Z,3.65
2023-03-06T19:58:51.311Z,3.40
2023-03-06T20:01:20.981Z,3.92
2023-03-06T20:03:49.469Z,3.93
2023-03-06T20:06:19.505Z,3.63
2023-03-06T20:08:47.753Z,3.80
2023-03-06T20:11:19.417Z,3.40
2023-03-06T20:13:47.998Z,5.47
2023-03-06T20:16:16.241Z,3.40
2023-03-06T20:18:43.339Z,5.78
2023-03-06T20:21:10.744Z,4.40
2023-03-06T20:23:38.163Z,3.83
2023-03-06T20:26:09.599Z,4.07
2023-03-06T20:28:39.235Z,3.47
2023-03-06T20:31:07.729Z,2.90
2023-03-06T20:33:34.924Z,2.97
2023-03-06T20:36:01.964Z,3.83
2023-03-06T20:38:29.110Z,3.20
2023-03-06T20:40:58.155Z,3.50
2023-03-06T20:43:25.278Z,3.33
2023-03-06T20:46:04.040Z,3.20
2023-03-06T20:48:31.124Z,3.50
2023-03-06T20:51:07.294Z,3.38
2023-03-06T20:53:35.316Z,3.57
2023-03-06T20:56:02.498Z,3.58
2023-03-06T20:58:31.673Z,3.50
2023-03-06T21:00:59.942Z,2.85
2023-03-06T21:03:29.295Z,3.28
2023-03-06T21:05:56.817Z,3.60
2023-03-06T21:08:24.211Z,3.20
2023-03-06T21:10:51.393Z,3.50
2023-03-06T21:13:18.552Z,3.75
2023-03-06T21:15:47.610Z,3.30
2023-03-06T21:18:14.945Z,3.30
2023-03-06T21:20:42.300Z,3.22
2023-03-06T21:23:09.528Z,3.70
2023-03-06T21:25:36.766Z,3.75
2023-03-06T21:28:03.844Z,3.95
2023-03-06T21:30:30.990Z,3.00
2023-03-06T21:32:58.084Z,3.35
2023-03-06T21:35:25.254Z,3.47
2023-03-06T21:37:52.325Z,3.10
2023-03-06T21:40:19.572Z,3.13
2023-03-06T21:42:46.521Z,3.00
2023-03-06T21:45:13.744Z,3.30
2023-03-06T21:47:41.116Z,3.33
2023-03-06T21:50:10.650Z,2.90
2023-03-06T21:52:37.684Z,2.90
2023-03-06T21:55:05.512Z,3.30
2023-03-06T21:57:32.817Z,2.92
2023-03-06T21:59:59.938Z,3.30
2023-03-06T22:02:26.972Z,3.55
2023-03-06T22:04:54.456Z,3.30
2023-03-06T22:07:21.748Z,3.33
2023-03-06T22:09:51.638Z,2.80
2023-03-06T22:12:18.647Z,3.65
2023-03-06T22:14:45.740Z,3.50
2023-03-06T22:17:13.193Z,3.30
2023-03-06T22:19:40.256Z,3.00
2023-03-06T22:22:08.286Z,3.20
2023-03-06T22:24:36.893Z,3.00
2023-03-06T22:27:04.166Z,2.85
2023-03-06T22:29:31.201Z,3.10
2023-03-06T22:31:58.386Z,3.07
2023-03-06T22:34:26.713Z,2.85
2023-03-06T22:36:53.803Z,3.25
2023-03-06T22:39:20.768Z,2.65
2023-03-06T22:41:47.731Z,3.33
2023-03-06T22:44:17.490Z,3.27
2023-03-06T22:46:45.459Z,2.88
2023-03-06T22:49:13.858Z,3.28
2023-03-06T22:51:40.964Z,3.30
2023-03-06T22:54:08.288Z,2.83
2023-03-06T22:56:35.997Z,2.90
2023-03-06T22:59:03.380Z,3.40
2023-03-06T23:01:33.114Z,3.28
2023-03-06T23:04:02.995Z,3.58
2023-03-06T23:06:31.476Z,3.33
2023-03-06T23:09:07.919Z,3.47
2023-03-06T23:11:53.523Z,2.97
2023-03-06T23:14:39.312Z,3.40
2023-03-06T23:17:25.196Z,3.15
2023-03-06T23:20:13.428Z,2.60
2023-03-06T23:22:59.051Z,3.00
2023-03-06T23:25:41.482Z,3.20
2023-03-06T23:28:08.526Z,2.78
2023-03-06T23:30:35.599Z,3.47
2023-03-06T23:33:02.582Z,3.10
2023-03-06T23:35:29.708Z,3.07
2023-03-06T23:37:57.494Z,3.03
2023-03-06T23:40:24.975Z,3.00
2023-03-06T23:42:51.980Z,3.17
2023-03-06T23:45:19.251Z,3.38
2023-03-06T23:47:46.261Z,2.50
2023-03-06T23:50:14.179Z,2.60
2023-03-06T23:52:41.212Z,2.72
2023-03-06T23:55:09.181Z,3.00
2023-03-06T23:57:36.308Z,2.90
